AirNav   Bose Proflight or Bose A20?
 
 1360 users online  

5B4 Bowbells Municipal Airport
Bowbells, North Dakota, USA

GOING TO BOWBELLS?


FAA INFORMATION EFFECTIVE 20 JUNE 2019

Location

FAA Identifier: 5B4
Lat/Long: 48-48-35.0980N / 102-14-43.6020W
48-48.584967N / 102-14.726700W
48.8097494 / -102.2454450
(estimated)
Elevation: 1955 ft. / 596 m (estimated)
Variation: 11E (1985)
From city: 1 mile N of BOWBELLS, ND
Time zone: UTC -5 (UTC -6 during Standard Time)
Zip code: 58721

Airport Operations

Airport use: Open to the public
Activation date: 04/1969
Control tower: no
ARTCC: MINNEAPOLIS CENTER
FSS: GRAND FORKS FLIGHT SERVICE STATION
NOTAMs facility: GFK (NOTAM-D service available)
Attendance: UNATNDD
Wind indicator: lighted
Segmented circle: no
Lights: SS-SR

Airport Communications

CTAF: 122.9

Airport Services

Parking: tiedowns
Airframe service: NONE
Powerplant service: NONE
Bottled oxygen: NONE
Bulk oxygen: NONE

Runway Information

Runway 8/26

Dimensions: 2900 x 200 ft. / 884 x 61 m
Surface: turf, in fair condition
Runway edge lights: non-standard
NSTD LIRL; GREEN THLD LGTS. LGTS OTS INDEFLY.
Runway edge markings: RY 08/26 MKD WITH DALGT BOUNDARY 3 FT METAL MARKERS.
RUNWAY 8  RUNWAY 26
Latitude: 48-48.568333N48-48.601500N
Longitude: 102-15.226667W102-14.506333W
Elevation: 1955.0 ft.1950.0 ft.
Traffic pattern: leftleft
Displaced threshold: no460 ft.
DSPLCD THR MKD ONLY WITH DALGT BOUNDARY 3' METAL MARKERS.
Obstructions: 10 ft. road, 200 ft. right of centerline29 ft. rr, 100 ft. from runway, 3:1 slope to clear
19:1 TO DSPLCD THR.

Airport Ownership and Management from official FAA records

Ownership: Publicly-owned
Owner: CITY OF BOWBELLS
P.O. BOX 125
BOWBELLS, ND 58721
Phone 701-377-2902
Manager: WAYNE JACOBSON
PO BOX 173
BOWBELLS, ND 58721
Phone 701-339-1574
ADD'L CONTACT, BRUCE ANDERSON 701-377-2984.

Airport Operational Statistics

Aircraft based on the field: 3
Single engine airplanes: 3
    
Aircraft operations: avg 22/month *
58% transient general aviation
38% local general aviation
4% air taxi
* for 12-month period ending 01 May 2015

Additional Remarks

RY IREG & SOFT WHEN WET WITH WATER PONDING POSSIBLE.
IREG SNOW REMOVAL; CFM RY COND PRIOR TO USE; CALL (701) 339-1574 OR 701-377-2731.
TWY SOFT WHEN WET WITH 1 INCH DRAINAGE SWALE.
+20 FT TREES LCTD 160 FT L OF CNTRLN AT RY 26 STARTING AT THLD INWARD BY 400 FT PARALLEL TO RY.
TREES PENETRATE TRSN SFC.
METAL FENCE ROW PENETRATES RSA.
FOR CD CTC MINNEAPOLIS ARTCC AT 651-463-5588.

Instrument Procedures

There are no published instrument procedures at 5B4.

Some nearby airports with instrument procedures:

7K5 - Kenmare Municipal Airport (12 nm SE)
KHBC - Mohall Municipal Airport (28 nm E)
08D - Stanley Municipal Airport (31 nm S)
D60 - Tioga Municipal Airport (37 nm SW)
D50 - Crosby Municipal Airport (42 nm W)
 
Loc | Ops | Rwys | IFR | FBO | Links
Com | Nav | Svcs | Stats | Notes

Bismarck Aero Center
AirBoss

 
Area around 5B4 (Bowbells Municipal Airport)
 
Road maps at: MapQuest Bing Google
 
Aerial photo
WARNING: Photo may not be current or correct
Aerial photo of 5B4 (Bowbells Municipal Airport)
Do you have a better or more recent aerial photo of Bowbells Municipal Airport that you would like to share? If so, please send us your photo.

 
Sectional chart

 
Airport distance calculator
Flying to Bowbells Municipal Airport? Find the distance to fly.

From to 5B4

Sunrise and sunset
Times for 24-Jun-2019
 Local
(UTC-5)
 Zulu
(UTC)
Morning civil twilight05:0510:05
Sunrise05:4710:47
Sunset21:5502:55
Evening civil twilight22:3803:38

Current date and time
Zulu (UTC)  24-Jun-2019 21:24:26
Local (UTC-5)  24-Jun-2019 16:24:26
 
METAR
K08D 
31nm S 
242055Z AUTO 23008G14KT 10SM VCTS SCT048 BKN060 BKN070 18/15 A2965 RMK AO2 LTG DSNT S AND SW
KD60 
37nm SW 
242055Z AUTO 31015KT 9SM SCT055 BKN070 OVC080 16/12 A2967 RMK AO2 LTG DSNT SE-W
CYEN 
37nm NW 
242053Z AUTO 28016G21KT 9SM BKN090 BKN110 19/15 A2963 RMK SLP039 DENSITY ALT 3100FT
KD50 
42nm W 
242055Z AUTO 32016G23KT 10SM FEW100 19/12 A2967 RMK AO2 LTG DSNT SE AND NW
KMIB 
43nm SE 
242056Z AUTO 28006KT 10SM FEW140 22/13 A2958 RMK AO2 LTG DSNT E-SE AND W RAB05E23 SLP020 P0001 60004 T02200133 57013 $
TAF
CYEN 
37nm NW 
241931Z 2419/2424 27010KT P6SM SCT080 BKN120 TEMPO 2419/2422 VRB15G25KT P6SM -TSRA BKN060CB BKN120 FM242200 27006KT P6SM BKN060 TEMPO 2422/2424 P6SM -SHRA VCTS BKN040CB RMK FCST BASED ON AUTO OBS. NXT FCST WILL BE ISSUED AT 251145Z
KMIB 
43nm SE 
241844Z 2418/2523 25010G15KT 9000 -SHRA VCTS SCT020CB BKN050 QNH2960INS BECMG 2500/2501 27012KT 9000 -SHRA SCT020 OVC050 QNH2962INS BECMG 2502/2503 29012G20KT 9999 NSW SCT020 BKN050 QNH2966INS TX25/2422Z TN12/2512Z
NOTAMs
Click for the latest NOTAMs
NOTAMs are issued by the DoD/FAA and will open in a separate window not controlled by AirNav.

 

 
 

Would you like to see your business listed on this page?

 If your business provides an interesting product or service to pilots, flight crews, aircraft, or users of the Bowbells Municipal Airport, you should consider listing it here.  To start the listing process, click on the button below
 
Add a business
 

Other Pages about Bowbells Municipal Airport

Update a link
 
Copyright © AirNav, LLC. All rights reserved. Privacy Policy  Contact